• Join FlightAware (Why Join?)
  • Login
  • US Flag 
12:21AM EST


 

Airport Tracker/Info


-or-


 

Live Flight TrackerFlight Track Log ✈ DAL6036 ✈ 20-Apr-2013 ✈ KDTW - KTVC

Flight Track Log - Related Links

Times and Time Zones

All times are in EDT time to prevent confusion due to time zone crossing. See the DAL6036 flight status page for this flight to view local times or setup timezone preferences in your user account.

Time Position Orientation Groundspeed Altitude Reporting Facility
EDT Latitude Longitude Course Direction KTS MPH feet Rate Location/Type
08:38PM 42.2008 -83.3889 North 162 186 1,200  Level Cleveland Center
08:38PM 42.1836 -83.4106 223° Southwest 176 203 2,500 2,640 Climbing Cleveland Center
08:39PM 42.1533 -83.4569 229° Southwest 185 213 5,000 2,340 Climbing Cleveland Center
08:40PM 42.1578 -83.5300 275° West 225 259 7,300 2,280 Climbing Cleveland Center
08:41PM 42.5550 -83.3500 North  Level FlightAware Approximate
08:41PM 42.2119 -83.6025 315° West 243 280 10,100  Level Cleveland Center
08:42PM 42.6438 -83.3500 North  Level FlightAware Approximate
08:42PM 42.2347 -83.6092 348° North 251 289 10,800  Level Cleveland Center
08:43PM 42.7325 -83.3500 North  Level FlightAware Approximate
08:43PM 42.3228 -83.5911 North 256 295 12,200  Level Cleveland Center
08:44PM 42.4114 -83.5558 16° North 286 329 13,500 1,260 Climbing Cleveland Center
08:45PM 42.5039 -83.5208 16° North 324 373 14,800 1,200 Climbing Cleveland Center
08:46PM 42.5986 -83.4828 16° North 339 390 16,000 1,200 Climbing Cleveland Center
08:47PM 42.6975 -83.4478 15° North 354 407 17,300 960 Climbing Cleveland Center
08:48PM 42.7986 -83.4100 15° North 359 413 18,000 300 Climbing Cleveland Center
08:49PM 42.9011 -83.3919 North 365 420 18,000  Level Cleveland Center
08:50PM 42.9847 -83.4639 328° Northwest 338 389 18,000  Level Cleveland Center
08:51PM 43.0597 -83.5528 319° Northwest 347 399 18,000  Level Cleveland Center
08:52PM 43.1367 -83.6444 319° Northwest 352 405 18,000  Level Cleveland Center
08:53PM 43.2133 -83.7339 320° Northwest 357 411 18,000  Level Cleveland Center
08:55PM 43.3464 -83.8858 320° Northwest 345 397 18,000  Level Minneapolis Center
08:56PM 43.4131 -83.9656 319° Northwest 329 379 18,000  Level Minneapolis Center
08:57PM 43.4800 -84.0453 319° Northwest 322 371 18,000  Level Minneapolis Center
08:58PM 43.5522 -84.1303 320° Northwest 335 386 18,000  Level Minneapolis Center
08:59PM 43.6294 -84.2214 320° Northwest 356 410 18,000  Level Minneapolis Center
09:00PM 43.7067 -84.3144 319° Northwest 366 421 18,000  Level Minneapolis Center
09:01PM 43.7828 -84.4053 319° Northwest 366 421 18,000  Level Minneapolis Center
09:02PM 43.8733 -84.5142 319° Northwest 362 417 18,000 -840 Level Minneapolis Center
09:03PM 43.9486 -84.6033 320° Northwest 360 414 16,300 -1,560 Descending Minneapolis Center
09:04PM 44.0153 -84.6844 319° Northwest 354 407 14,900 -1,380 Descending Minneapolis Center
09:05PM 44.0864 -84.7708 319° Northwest 345 397 13,500 -1,320 Descending Minneapolis Center
09:06PM 44.1689 -84.8703 319° Northwest 334 384 12,200 -1,140 Descending Minneapolis Center
09:07PM 44.2339 -84.9497 319° Northwest 319 367 11,200 -900 Descending Minneapolis Center
09:08PM 44.2828 -85.0094 319° Northwest 305 351 10,400 -960 Descending Minneapolis Center
09:09PM 44.3450 -85.0878 318° Northwest 262 302 9,300 -1,080 Descending Minneapolis Center
09:10PM 44.3967 -85.1519 318° Northwest 252 290 8,300 -1,020 Descending Minneapolis Center
09:11PM 44.4483 -85.2142 319° Northwest 248 285 7,300 -1,020 Descending Minneapolis Center
09:12PM 44.4964 -85.2747 318° Northwest 239 275 6,300 -1,020 Descending Minneapolis Center
09:13PM 44.5458 -85.3364 318° Northwest 237 273 5,300 -1,020 Descending Minneapolis Center
09:14PM 44.5925 -85.3950 318° Northwest 234 269 4,300 -660 Descending Minneapolis Center
09:15PM 44.6453 -85.4608 318° Northwest 223 257 4,000 -360 Descending Minneapolis Center
09:16PM 44.6597 -85.5297 286° West 217 250 3,600 -540 Descending Minneapolis Center
09:17PM 44.6625 -85.5917 274° West 208 239 3,000 -300 Descending Minneapolis Center
09:18PM 44.6675 -85.6786 275° West 195 224 3,000  Level Minneapolis Center
09:19PM 44.6811 -85.7478 285° West 203 234 3,000 -240 Level Minneapolis Center
09:20PM 44.7297 -85.7375 North 191 220 2,600 -420 Descending Minneapolis Center